createdAt,value
2022-07-27T00:01:14.118Z,11.68
2022-07-27T00:03:42.720Z,11.64
2022-07-27T00:06:10.377Z,11.74
2022-07-27T00:08:37.727Z,11.68
2022-07-27T00:11:05.492Z,11.67
2022-07-27T00:13:32.929Z,11.67
2022-07-27T00:16:00.249Z,11.63
2022-07-27T00:18:27.661Z,11.60
2022-07-27T00:20:55.361Z,11.58
2022-07-27T00:23:22.720Z,11.60
2022-07-27T00:25:50.190Z,11.60
2022-07-27T00:28:17.641Z,11.63
2022-07-27T00:30:44.887Z,11.59
2022-07-27T00:33:16.836Z,11.56
2022-07-27T00:35:45.717Z,11.53
2022-07-27T00:38:13.270Z,11.56
2022-07-27T00:40:40.787Z,11.49
2022-07-27T00:43:09.380Z,11.46
2022-07-27T00:45:36.789Z,11.51
2022-07-27T00:48:04.581Z,11.52
2022-07-27T00:50:32.029Z,11.53
2022-07-27T00:52:59.602Z,11.51
2022-07-27T00:55:27.744Z,11.58
2022-07-27T00:57:59.286Z,11.60
2022-07-27T01:00:29.535Z,11.60
2022-07-27T01:02:57.214Z,11.52
2022-07-27T01:05:35.952Z,11.54
2022-07-27T01:08:06.974Z,11.50
2022-07-27T01:10:35.477Z,11.60
2022-07-27T01:13:03.081Z,11.68
2022-07-27T01:15:31.586Z,11.58
2022-07-27T01:18:04.803Z,11.59
2022-07-27T01:20:33.856Z,11.61
2022-07-27T01:23:01.081Z,11.73
2022-07-27T01:25:28.391Z,11.65
2022-07-27T01:27:55.717Z,11.51
2022-07-27T01:30:30.562Z,11.51
2022-07-27T01:33:03.449Z,11.53
2022-07-27T01:35:31.582Z,11.54
2022-07-27T01:38:00.188Z,11.63
2022-07-27T01:40:27.704Z,11.59
2022-07-27T01:42:55.093Z,11.61
2022-07-27T01:45:22.630Z,11.58
2022-07-27T01:47:50.046Z,11.57
2022-07-27T01:50:17.352Z,11.59
2022-07-27T01:52:44.737Z,11.63
2022-07-27T01:55:13.006Z,11.61
2022-07-27T01:57:40.666Z,11.55
2022-07-27T02:00:12.054Z,11.51
2022-07-27T02:02:42.660Z,11.44
2022-07-27T02:05:14.053Z,11.41
2022-07-27T02:07:42.312Z,11.38
2022-07-27T02:10:10.896Z,11.34
2022-07-27T02:12:38.409Z,11.36
2022-07-27T02:15:19.302Z,11.41
2022-07-27T02:17:48.164Z,11.42
2022-07-27T02:20:19.667Z,11.42
2022-07-27T02:22:47.799Z,11.48
2022-07-27T02:25:17.713Z,11.47
2022-07-27T02:27:46.169Z,11.50
2022-07-27T02:30:14.279Z,11.52
2022-07-27T02:32:45.522Z,11.53
2022-07-27T02:35:18.831Z,11.67
2022-07-27T02:37:48.809Z,11.77
2022-07-27T02:40:18.038Z,11.72
2022-07-27T02:42:47.035Z,11.80
2022-07-27T02:45:15.760Z,11.94
2022-07-27T02:47:44.347Z,11.97
2022-07-27T02:50:12.377Z,11.95
2022-07-27T02:52:40.172Z,12.00
2022-07-27T02:55:09.008Z,12.01
2022-07-27T02:57:37.997Z,12.09
2022-07-27T03:00:15.046Z,12.18
2022-07-27T03:02:42.633Z,12.18
2022-07-27T03:05:11.083Z,12.15
2022-07-27T03:07:38.745Z,12.03
2022-07-27T03:10:07.106Z,12.12
2022-07-27T03:12:34.583Z,12.32
2022-07-27T03:15:01.870Z,12.46
2022-07-27T03:17:29.273Z,12.44
2022-07-27T03:19:56.554Z,12.34
2022-07-27T03:22:23.900Z,12.25
2022-07-27T03:24:51.272Z,12.25
2022-07-27T03:27:18.608Z,12.27
2022-07-27T03:29:45.939Z,12.29
2022-07-27T03:32:13.164Z,12.41
2022-07-27T03:34:40.525Z,12.46
2022-07-27T03:37:07.783Z,12.52
2022-07-27T03:39:35.066Z,12.52
2022-07-27T03:42:02.571Z,12.66
2022-07-27T03:44:30.151Z,12.83
2022-07-27T03:46:58.476Z,12.99
2022-07-27T03:49:26.009Z,13.10
2022-07-27T03:51:53.383Z,13.13
2022-07-27T03:54:20.852Z,13.24
2022-07-27T03:56:48.170Z,13.35
2022-07-27T03:59:15.799Z,13.57
2022-07-27T04:01:43.336Z,13.76
2022-07-27T04:04:11.065Z,14.12
2022-07-27T04:06:38.416Z,14.40
2022-07-27T04:09:08.789Z,14.84
2022-07-27T04:11:43.732Z,15.02
2022-07-27T04:14:19.267Z,15.16
2022-07-27T04:16:47.419Z,15.23
2022-07-27T04:19:15.456Z,15.23
2022-07-27T04:21:42.905Z,15.49
2022-07-27T04:24:10.987Z,15.38
2022-07-27T04:26:38.872Z,15.59
2022-07-27T04:29:06.231Z,15.86
2022-07-27T04:31:33.764Z,16.00
2022-07-27T04:34:01.131Z,16.06
2022-07-27T04:36:28.636Z,16.22
2022-07-27T04:38:56.004Z,16.23
2022-07-27T04:41:23.401Z,16.46
2022-07-27T04:43:59.083Z,16.69
2022-07-27T04:46:29.899Z,16.82
2022-07-27T04:48:57.686Z,16.96
2022-07-27T04:51:25.137Z,17.14
2022-07-27T04:53:58.143Z,17.28
2022-07-27T04:56:27.463Z,17.80
2022-07-27T04:58:56.074Z,17.93
2022-07-27T05:01:23.678Z,18.18
2022-07-27T05:03:51.815Z,18.49
2022-07-27T05:06:19.206Z,18.61
2022-07-27T05:08:46.480Z,19.22
2022-07-27T05:11:13.806Z,19.66
2022-07-27T05:13:41.276Z,20.01
2022-07-27T05:16:12.324Z,20.29
2022-07-27T05:18:40.375Z,20.44
2022-07-27T05:21:08.450Z,21.29
2022-07-27T05:23:36.291Z,22.17
2022-07-27T05:26:03.709Z,23.00
2022-07-27T05:28:31.453Z,23.55
2022-07-27T05:30:58.979Z,23.89
2022-07-27T05:33:26.238Z,24.24
2022-07-27T05:35:55.122Z,24.08
2022-07-27T05:38:22.571Z,22.91
2022-07-27T05:40:49.992Z,21.97
2022-07-27T05:43:17.429Z,22.04
2022-07-27T05:45:44.954Z,23.31
2022-07-27T05:48:12.383Z,23.13
2022-07-27T05:50:39.885Z,22.11
2022-07-27T05:53:07.144Z,21.39
2022-07-27T05:55:34.667Z,20.70
2022-07-27T05:58:02.082Z,20.28
2022-07-27T06:00:29.473Z,20.07
2022-07-27T06:02:56.891Z,19.89
2022-07-27T06:05:24.441Z,19.95
2022-07-27T06:08:01.522Z,19.87
2022-07-27T06:10:32.361Z,19.68
2022-07-27T06:13:04.421Z,19.75
2022-07-27T06:15:32.362Z,19.77
2022-07-27T06:17:59.767Z,19.85
2022-07-27T06:20:27.714Z,19.97
2022-07-27T06:23:00.602Z,20.18
2022-07-27T06:25:34.439Z,20.34
2022-07-27T06:28:05.574Z,20.69
2022-07-27T06:30:33.374Z,21.12
2022-07-27T06:33:04.376Z,21.85
2022-07-27T06:35:32.830Z,23.38
2022-07-27T06:38:01.001Z,24.54
2022-07-27T06:40:29.935Z,24.51
2022-07-27T06:42:58.454Z,24.65
2022-07-27T06:45:26.036Z,24.44
2022-07-27T06:47:53.532Z,24.58
2022-07-27T06:50:21.655Z,24.33
2022-07-27T06:52:49.756Z,24.88
2022-07-27T06:55:17.818Z,24.24
2022-07-27T06:57:46.583Z,23.74
2022-07-27T07:00:15.270Z,23.64
2022-07-27T07:02:58.876Z,23.40
2022-07-27T07:05:27.139Z,24.90
2022-07-27T07:07:54.551Z,25.09
2022-07-27T07:10:23.735Z,24.11
2022-07-27T07:12:55.786Z,23.04
2022-07-27T07:15:26.462Z,22.69
2022-07-27T07:17:54.476Z,23.31
2022-07-27T07:20:22.512Z,22.95
2022-07-27T07:22:50.404Z,22.89
2022-07-27T07:25:18.040Z,23.49
2022-07-27T07:27:45.377Z,24.99
2022-07-27T07:30:13.248Z,27.44
2022-07-27T07:32:40.672Z,28.55
2022-07-27T07:35:09.132Z,29.23
2022-07-27T07:37:36.591Z,30.00
2022-07-27T07:40:39.937Z,29.61
2022-07-27T07:43:02.829Z,31.35
2022-07-27T07:45:34.883Z,32.25
2022-07-27T07:48:02.284Z,33.75
2022-07-27T07:50:29.546Z,33.57
2022-07-27T07:52:57.071Z,34.28
2022-07-27T07:55:28.582Z,33.52
2022-07-27T07:57:57.840Z,32.74
2022-07-27T08:00:25.291Z,32.42
2022-07-27T08:02:56.052Z,33.98
2022-07-27T08:05:24.770Z,34.28
2022-07-27T08:07:52.688Z,33.09
2022-07-27T08:10:22.340Z,32.90
2022-07-27T08:12:55.147Z,31.72
2022-07-27T08:15:35.413Z,33.71
2022-07-27T08:18:07.755Z,34.61
2022-07-27T08:20:35.549Z,34.98
2022-07-27T08:23:03.476Z,33.74
2022-07-27T08:25:31.858Z,32.09
2022-07-27T08:27:59.714Z,31.77
2022-07-27T08:30:27.238Z,32.61
2022-07-27T08:33:03.619Z,33.00
2022-07-27T08:35:33.675Z,34.49
2022-07-27T08:38:03.144Z,34.35
2022-07-27T08:40:46.784Z,34.32
2022-07-27T08:43:21.887Z,34.82
2022-07-27T08:45:58.100Z,34.96
2022-07-27T08:48:27.445Z,35.08
2022-07-27T08:50:55.357Z,33.45
2022-07-27T08:53:23.697Z,32.74
2022-07-27T08:55:51.560Z,34.07
2022-07-27T08:58:19.113Z,34.71
2022-07-27T09:00:50.271Z,35.84
2022-07-27T09:03:22.794Z,35.46
2022-07-27T09:05:56.214Z,34.85
2022-07-27T09:08:30.366Z,35.76
2022-07-27T09:11:00.435Z,36.86
2022-07-27T09:13:35.162Z,36.63
2022-07-27T09:16:18.487Z,35.74
2022-07-27T09:18:48.003Z,36.22
2022-07-27T09:21:22.597Z,37.34
2022-07-27T09:24:18.047Z,37.29
2022-07-27T09:27:03.904Z,36.21
2022-07-27T09:29:36.156Z,36.16
2022-07-27T09:32:16.885Z,35.57
2022-07-27T09:34:45.239Z,36.50
2022-07-27T09:37:23.100Z,37.70
2022-07-27T09:39:50.518Z,37.31
2022-07-27T09:42:59.312Z,35.25
2022-07-27T09:45:34.110Z,35.54
2022-07-27T09:48:17.064Z,36.95
2022-07-27T09:51:02.663Z,37.68
2022-07-27T09:53:44.126Z,34.74
2022-07-27T09:56:16.387Z,34.60
2022-07-27T09:58:46.642Z,33.50
2022-07-27T10:01:26.189Z,33.38
2022-07-27T10:03:56.787Z,34.86
2022-07-27T10:06:26.084Z,34.49
2022-07-27T10:08:55.918Z,35.65
2022-07-27T10:11:25.433Z,34.85
2022-07-27T10:13:55.451Z,35.49
2022-07-27T10:16:29.064Z,35.35
2022-07-27T10:19:21.849Z,36.01
2022-07-27T10:21:50.134Z,35.27
2022-07-27T10:24:43.731Z,33.97
2022-07-27T10:27:47.338Z,35.23
2022-07-27T10:30:17.679Z,34.56
2022-07-27T10:32:52.474Z,33.32
2022-07-27T10:35:46.553Z,34.04
2022-07-27T10:38:18.353Z,34.22
2022-07-27T10:40:45.961Z,33.43
2022-07-27T10:43:22.932Z,32.41
2022-07-27T10:46:01.413Z,32.01
2022-07-27T10:48:44.222Z,30.52
2022-07-27T10:51:16.788Z,29.92
2022-07-27T10:56:50.933Z,32.10
2022-07-27T11:00:08.002Z,31.62
2022-07-27T11:02:42.789Z,31.12
2022-07-27T11:08:35.744Z,30.21
2022-07-27T11:10:49.911Z,30.92
2022-07-27T11:13:24.043Z,30.13
2022-07-27T11:16:23.516Z,30.55
2022-07-27T11:19:01.474Z,30.70
2022-07-27T11:21:35.959Z,31.23
2022-07-27T11:24:17.526Z,30.94
2022-07-27T11:26:51.708Z,30.36
2022-07-27T11:29:25.049Z,30.63
2022-07-27T11:31:57.771Z,30.30
2022-07-27T11:34:34.643Z,28.78
2022-07-27T11:37:11.909Z,28.87
2022-07-27T11:40:00.267Z,29.10
2022-07-27T11:42:40.376Z,28.56
2022-07-27T11:45:08.410Z,28.06
2022-07-27T11:47:37.121Z,28.15
2022-07-27T11:50:07.838Z,28.17
2022-07-27T11:52:35.342Z,28.42
2022-07-27T11:55:02.885Z,27.90
2022-07-27T11:57:34.296Z,27.50
2022-07-27T12:00:02.276Z,27.07
2022-07-27T12:02:50.043Z,26.78
2022-07-27T12:05:17.596Z,26.84
2022-07-27T12:07:45.046Z,27.02
2022-07-27T12:10:13.488Z,27.08
2022-07-27T12:12:41.450Z,27.17
2022-07-27T12:15:45.999Z,26.96
2022-07-27T12:18:08.021Z,27.40
2022-07-27T12:20:37.387Z,27.40
2022-07-27T12:23:08.061Z,27.51
2022-07-27T12:25:36.637Z,27.63
2022-07-27T12:28:14.494Z,27.25
2022-07-27T12:30:52.815Z,27.03
2022-07-27T12:33:37.924Z,26.71
2022-07-27T12:36:08.172Z,26.89
2022-07-27T12:38:51.034Z,26.96
2022-07-27T12:41:38.251Z,27.20
2022-07-27T12:44:17.117Z,26.91
2022-07-27T12:47:27.320Z,27.08
2022-07-27T12:50:17.161Z,27.33
2022-07-27T12:52:51.248Z,27.35
2022-07-27T12:55:21.308Z,27.20
2022-07-27T12:57:56.059Z,27.11
2022-07-27T13:00:33.563Z,26.74
2022-07-27T13:03:04.085Z,26.51
2022-07-27T13:05:32.976Z,26.15
2022-07-27T13:08:03.362Z,25.95
2022-07-27T13:10:31.384Z,25.86
2022-07-27T13:12:59.262Z,25.79
2022-07-27T13:15:27.227Z,25.52
2022-07-27T13:17:54.597Z,25.73
2022-07-27T13:20:22.850Z,25.51
2022-07-27T13:22:50.511Z,25.47
2022-07-27T13:25:18.084Z,25.69
2022-07-27T13:27:50.041Z,25.83
2022-07-27T13:30:18.745Z,25.79
2022-07-27T13:32:47.137Z,25.63
2022-07-27T13:35:16.866Z,25.40
2022-07-27T13:37:45.164Z,25.24
2022-07-27T13:40:13.382Z,25.38
2022-07-27T13:42:40.734Z,25.47
2022-07-27T13:45:11.387Z,25.47
2022-07-27T13:47:41.325Z,25.52
2022-07-27T13:50:17.782Z,25.47
2022-07-27T13:52:48.525Z,25.57
2022-07-27T13:55:17.754Z,25.31
2022-07-27T13:57:47.060Z,24.91
2022-07-27T14:00:16.234Z,24.84
2022-07-27T14:02:44.066Z,24.91
2022-07-27T14:05:14.561Z,24.98
2022-07-27T14:07:44.307Z,24.94
2022-07-27T14:10:31.218Z,25.15
2022-07-27T14:13:09.015Z,24.74
2022-07-27T14:15:50.283Z,24.88
2022-07-27T14:18:22.372Z,25.25
2022-07-27T14:20:49.738Z,25.44
2022-07-27T14:23:17.008Z,25.51
2022-07-27T14:25:44.489Z,25.51
2022-07-27T14:28:11.779Z,25.64
2022-07-27T14:30:39.119Z,25.55
2022-07-27T14:33:06.367Z,25.39
2022-07-27T14:35:39.917Z,25.59
2022-07-27T14:38:08.397Z,25.59
2022-07-27T14:40:35.885Z,25.55
2022-07-27T14:43:03.503Z,25.82
2022-07-27T14:45:44.631Z,25.96
2022-07-27T14:48:28.184Z,25.96
2022-07-27T14:51:04.830Z,25.57
2022-07-27T14:53:32.080Z,25.76
2022-07-27T14:55:59.416Z,25.53
2022-07-27T14:58:27.397Z,25.54
2022-07-27T15:00:55.083Z,25.40
2022-07-27T15:03:22.558Z,25.38
2022-07-27T15:05:51.042Z,25.19
2022-07-27T15:08:21.924Z,25.05
2022-07-27T15:10:49.397Z,24.78
2022-07-27T15:13:17.973Z,24.71
2022-07-27T15:15:48.498Z,24.68
2022-07-27T15:18:18.958Z,24.62
2022-07-27T15:20:49.782Z,24.58
2022-07-27T15:23:17.447Z,24.29
2022-07-27T15:25:44.909Z,24.13
2022-07-27T15:28:12.397Z,23.80
2022-07-27T15:30:39.905Z,23.68
2022-07-27T15:33:07.742Z,23.50
2022-07-27T15:35:35.725Z,23.52
2022-07-27T15:38:04.010Z,23.67
2022-07-27T15:40:37.500Z,23.68
2022-07-27T15:43:14.674Z,23.77
2022-07-27T15:45:45.692Z,23.74
2022-07-27T15:48:14.114Z,23.55
2022-07-27T15:50:45.023Z,23.66
2022-07-27T15:53:14.254Z,23.71
2022-07-27T15:55:43.908Z,23.73
2022-07-27T15:58:13.572Z,23.81
2022-07-27T16:00:41.699Z,23.77
2022-07-27T16:03:12.131Z,23.76
2022-07-27T16:05:42.021Z,23.81
2022-07-27T16:08:10.468Z,23.78
2022-07-27T16:10:39.868Z,23.74
2022-07-27T16:13:09.036Z,23.67
2022-07-27T16:15:57.741Z,23.66
2022-07-27T16:18:26.549Z,23.53
2022-07-27T16:20:54.236Z,23.45
2022-07-27T16:23:22.571Z,23.30
2022-07-27T16:26:10.038Z,23.33
2022-07-27T16:28:41.234Z,23.29
2022-07-27T16:31:11.554Z,23.24
2022-07-27T16:33:40.897Z,23.16
2022-07-27T16:36:09.749Z,23.06
2022-07-27T16:38:39.290Z,23.01
2022-07-27T16:41:19.115Z,22.90
2022-07-27T16:43:47.078Z,22.81
2022-07-27T16:46:14.701Z,22.77
2022-07-27T16:48:43.353Z,22.66
2022-07-27T16:51:15.540Z,22.52
2022-07-27T16:53:45.979Z,22.44
2022-07-27T16:56:14.747Z,22.33
2022-07-27T16:58:42.264Z,22.12
2022-07-27T17:01:09.942Z,22.10
2022-07-27T17:03:49.770Z,22.09
2022-07-27T17:06:18.935Z,22.05
2022-07-27T17:08:46.326Z,22.04
2022-07-27T17:11:14.025Z,21.94
2022-07-27T17:13:44.545Z,21.84
2022-07-27T17:16:17.180Z,21.82
2022-07-27T17:18:44.757Z,21.66
2022-07-27T17:21:13.244Z,21.47
2022-07-27T17:23:42.421Z,21.36
2022-07-27T17:26:13.913Z,21.29
2022-07-27T17:28:41.741Z,21.23
2022-07-27T17:31:12.432Z,21.20
2022-07-27T17:33:41.571Z,21.14
2022-07-27T17:36:15.125Z,21.12
2022-07-27T17:38:47.096Z,20.93
2022-07-27T17:41:19.346Z,20.85
2022-07-27T17:43:52.281Z,20.71
2022-07-27T17:46:19.746Z,20.60
2022-07-27T17:48:47.290Z,20.59
2022-07-27T17:51:14.830Z,20.61
2022-07-27T17:53:42.219Z,20.54
2022-07-27T17:56:11.053Z,20.57
2022-07-27T17:58:39.127Z,20.60
2022-07-27T18:01:07.230Z,20.68
2022-07-27T18:03:35.158Z,20.72
2022-07-27T18:06:03.123Z,20.67
2022-07-27T18:08:30.505Z,20.68
2022-07-27T18:10:57.914Z,20.67
2022-07-27T18:13:39.272Z,20.58
2022-07-27T18:16:12.020Z,20.57
2022-07-27T18:18:41.839Z,20.52
2022-07-27T18:21:10.697Z,20.53
2022-07-27T18:23:38.662Z,20.52
2022-07-27T18:26:06.534Z,20.54
2022-07-27T18:28:39.294Z,20.52
2022-07-27T18:31:08.445Z,20.48
2022-07-27T18:33:36.504Z,20.45
2022-07-27T18:36:05.298Z,20.43
2022-07-27T18:38:32.664Z,20.36
2022-07-27T18:41:00.167Z,20.34
2022-07-27T18:43:27.641Z,20.27
2022-07-27T18:45:55.036Z,20.15
2022-07-27T18:48:22.349Z,20.05
2022-07-27T18:50:49.681Z,19.97
2022-07-27T18:53:17.077Z,19.94
2022-07-27T18:55:45.089Z,19.94
2022-07-27T18:58:12.551Z,19.95
2022-07-27T19:00:40.038Z,19.99
2022-07-27T19:03:07.560Z,19.97
2022-07-27T19:05:41.692Z,19.89
2022-07-27T19:08:13.306Z,19.90
2022-07-27T19:10:45.104Z,19.91
2022-07-27T19:13:14.177Z,19.83
2022-07-27T19:15:41.607Z,19.76
2022-07-27T19:18:09.411Z,19.75
2022-07-27T19:20:37.806Z,19.67
2022-07-27T19:23:08.452Z,19.64
2022-07-27T19:25:36.094Z,19.64
2022-07-27T19:28:04.380Z,19.57
2022-07-27T19:30:32.055Z,19.58
2022-07-27T19:32:59.815Z,19.61
2022-07-27T19:35:27.359Z,19.63
2022-07-27T19:37:54.691Z,19.62
2022-07-27T19:43:10.172Z,19.65
2022-07-27T19:45:38.172Z,19.65
2022-07-27T19:48:06.791Z,19.69
2022-07-27T19:50:34.821Z,19.62
2022-07-27T19:53:03.208Z,19.61
2022-07-27T19:55:30.534Z,19.58
2022-07-27T19:57:58.026Z,19.56
2022-07-27T20:00:25.838Z,19.51
2022-07-27T20:02:53.566Z,19.51
2022-07-27T20:05:20.995Z,19.47
2022-07-27T20:07:48.418Z,19.48
2022-07-27T20:10:16.268Z,19.39
2022-07-27T20:12:43.742Z,19.39
2022-07-27T20:15:11.549Z,19.32
2022-07-27T20:17:40.611Z,19.28
2022-07-27T20:20:09.916Z,19.27
2022-07-27T20:22:39.312Z,19.25
2022-07-27T20:25:10.061Z,19.25
2022-07-27T20:27:38.618Z,19.26
2022-07-27T20:30:06.977Z,19.18
2022-07-27T20:32:35.054Z,19.22
2022-07-27T20:35:03.659Z,19.15
2022-07-27T20:37:31.009Z,19.12
2022-07-27T20:39:58.344Z,19.11
2022-07-27T20:42:25.829Z,19.05
2022-07-27T20:44:53.545Z,19.01
2022-07-27T20:47:20.955Z,18.97
2022-07-27T20:49:48.450Z,18.91
2022-07-27T20:52:16.299Z,18.90
2022-07-27T20:54:43.696Z,18.89
2022-07-27T20:57:11.081Z,18.84
2022-07-27T20:59:38.544Z,18.76
2022-07-27T21:02:07.744Z,18.74
2022-07-27T21:04:35.663Z,18.72
2022-07-27T21:07:03.081Z,18.67
2022-07-27T21:09:31.926Z,18.64
2022-07-27T21:11:59.567Z,18.58
2022-07-27T21:14:26.842Z,18.57
2022-07-27T21:16:54.371Z,18.54
2022-07-27T21:19:22.715Z,18.53
2022-07-27T21:21:50.175Z,18.49
2022-07-27T21:24:18.802Z,18.46
2022-07-27T21:26:50.470Z,18.42
2022-07-27T21:29:19.526Z,18.39
2022-07-27T21:31:49.564Z,18.33
2022-07-27T21:34:20.580Z,18.29
2022-07-27T21:36:48.615Z,18.25
2022-07-27T21:39:18.150Z,18.25
2022-07-27T21:41:45.935Z,18.15
2022-07-27T21:44:14.423Z,18.08
2022-07-27T21:46:42.691Z,18.01
2022-07-27T21:49:10.629Z,17.98
2022-07-27T21:51:38.170Z,17.97
2022-07-27T21:54:06.182Z,17.93
2022-07-27T21:56:41.110Z,17.83
2022-07-27T21:59:09.268Z,17.69
2022-07-27T22:01:36.707Z,17.62
2022-07-27T22:04:04.195Z,17.55
2022-07-27T22:06:31.746Z,17.54
2022-07-27T22:08:59.097Z,17.47
2022-07-27T22:11:26.488Z,17.42
2022-07-27T22:13:53.875Z,17.31
2022-07-27T22:16:21.385Z,17.28
2022-07-27T22:18:48.920Z,17.28
2022-07-27T22:21:16.572Z,17.25
2022-07-27T22:23:44.995Z,17.26
2022-07-27T22:26:12.332Z,17.27
2022-07-27T22:28:40.096Z,17.24
2022-07-27T22:31:21.236Z,17.21
2022-07-27T22:33:49.357Z,17.22
2022-07-27T22:36:16.645Z,17.24
2022-07-27T22:38:44.164Z,17.22
2022-07-27T22:41:11.695Z,17.01
2022-07-27T22:43:39.020Z,17.07
2022-07-27T22:46:06.631Z,17.08
2022-07-27T22:48:33.923Z,16.96
2022-07-27T22:51:01.286Z,16.87
2022-07-27T22:53:28.760Z,16.88
2022-07-27T22:55:56.340Z,16.80
2022-07-27T22:58:23.669Z,16.76
2022-07-27T23:00:53.600Z,16.73
2022-07-27T23:03:24.858Z,16.75
2022-07-27T23:05:52.098Z,16.67
2022-07-27T23:08:19.407Z,16.68
2022-07-27T23:10:46.930Z,16.75
2022-07-27T23:13:20.088Z,16.73
2022-07-27T23:15:48.176Z,16.65
2022-07-27T23:18:16.987Z,16.73
2022-07-27T23:20:45.112Z,16.77
2022-07-27T23:23:16.352Z,16.66
2022-07-27T23:25:47.005Z,16.70
2022-07-27T23:28:15.950Z,16.69
2022-07-27T23:30:43.420Z,16.60
2022-07-27T23:33:11.192Z,16.52
2022-07-27T23:35:38.658Z,16.53
2022-07-27T23:38:05.956Z,16.54
2022-07-27T23:40:33.263Z,16.59
2022-07-27T23:43:00.586Z,16.55
2022-07-27T23:45:28.291Z,16.53
2022-07-27T23:47:55.926Z,16.54
2022-07-27T23:50:23.314Z,16.50
2022-07-27T23:52:50.764Z,16.43
2022-07-27T23:55:18.098Z,16.49
2022-07-27T23:57:45.528Z,16.59
